Stations météo

réclame
Mon MeteoGroup
Rodkallen, Suède (2188): Température de l'air & dewpoint: 17.04.2018 04:00:00 - 23.04.2018 04:00:00 (CEST)Rodkallen, Suède (2188): Vitesse du vent & gusts: 17.04.2018 04:00:00 - 23.04.2018 04:00:00 (CEST)Rodkallen, Suède (2188): Direction du vent: 17.04.2018 04:00:00 - 23.04.2018 04:00:00 (CEST)Rodkallen, Suède (2188): visibility: 17.04.2018 04:00:00 - 23.04.2018 04:00:00 (CEST)Rodkallen, Suède (2188): Quantités de précipitations: 17.04.2018 04:00:00 - 23.04.2018 04:00:00 (CEST)
Date & Time tt [°C] td [°C] ff [km/h] ff [knt] fx [km/h] fx [knt] dd vv [km] rr [mm]
23.04.2018 04:00:00 - - - - - - - - -
23.04.2018 03:00:00 -0,1 -0,8 23 12 27 14 SSE 19 0,0
23.04.2018 02:00:00 0,2 -0,5 21 11 24 13 SSE 19 0,2
23.04.2018 01:00:00 0,2 -0,5 18 10 22 12 SSE 11 0,9
23.04.2018 00:00:00 0,1 -0,8 13 7 21 11 SSE 6 0,2
22.04.2018 23:00:00 -0,1 -0,9 15 8 20 11 S 12 0,0
22.04.2018 22:00:00 -1,1 -1,9 17 9 21 12 S 19 0,0
22.04.2018 21:00:00 -0,9 -1,9 16 9 22 12 SSE 17 0,0
22.04.2018 20:00:00 -1,0 -2,0 18 10 22 12 SSE 22 0,0
22.04.2018 19:00:00 -0,9 -1,9 18 10 21 11 SSE 25 0,0
22.04.2018 18:00:00 -0,2 -1,5 16 8 21 12 SSE 32 0,0
22.04.2018 17:00:00 0,3 -1,1 16 9 22 12 SSE 28 0,0
22.04.2018 16:00:00 0,6 -1,0 16 9 22 12 S 30 0,0
22.04.2018 15:00:00 0,7 -0,8 16 8 18 10 S 36 0,0
22.04.2018 14:00:00 0,9 -0,9 11 6 14 7 S 26 0,0
22.04.2018 13:00:00 0,8 -0,8 12 6 14 8 S 27 0,0
22.04.2018 12:00:00 0,8 -1,0 10 6 14 8 S 24 0,0
22.04.2018 11:00:00 0,9 -1,0 9 5 10 6 S 23 0,0
22.04.2018 10:00:00 1,3 -1,1 4 2 8 5 ESE 29 0,0
22.04.2018 09:00:00 0,2 -1,6 6 4 8 4 E 28 0,0
22.04.2018 08:00:00 0,4 -1,4 5 3 9 5 NNE 28 0,0
22.04.2018 07:00:00 -0,4 -1,5 6 3 14 7 N 37 0,0
22.04.2018 06:00:00 -0,8 -1,6 7 4 15 8 N 37 0,0
22.04.2018 05:00:00 -0,5 -1,2 11 6 17 9 NNE 38 0,0
22.04.2018 04:00:00 -0,5 -1,3 14 8 21 11 NE 47 0,0
22.04.2018 03:00:00 -0,2 -0,8 14 7 22 12 NE 15 0,0
22.04.2018 02:00:00 -0,2 -1,0 16 9 25 13 ENE 31 0,0
22.04.2018 01:00:00 0,2 -0,8 19 10 25 13 ENE 23 0,0
22.04.2018 00:00:00 0,5 -0,6 20 11 24 13 ENE 32 0,0
21.04.2018 23:00:00 0,5 -0,5 19 10 22 12 ENE 18 0,0
21.04.2018 22:00:00 0,6 -0,1 17 9 22 12 NE 37 0,0
21.04.2018 21:00:00 0,5 0,1 14 8 18 10 NNE 17 0,0
21.04.2018 20:00:00 0,4 0,0 10 5 15 8 NNE 22 0,0
21.04.2018 19:00:00 0,5 0,1 11 6 17 9 NE 22 0,0
21.04.2018 18:00:00 0,5 0,1 12 6 17 9 NE 29 0,0
21.04.2018 17:00:00 0,5 0,2 13 7 16 8 NE 27 0,0
21.04.2018 16:00:00 0,7 0,4 9 5 15 8 ENE 28 0,0
21.04.2018 15:00:00 0,6 0,3 13 7 15 8 ENE 12 0,0
21.04.2018 14:00:00 0,6 0,3 11 6 15 8 ENE 7 0,2
21.04.2018 13:00:00 0,5 0,2 7 4 15 8 NE 3,0 0,6
21.04.2018 12:00:00 0,5 0,4 12 7 15 8 NNE 4,5 0,9
21.04.2018 11:00:00 0,5 0,4 7 4 11 6 N 1,7 0,3
21.04.2018 10:00:00 0,8 0,7 10 5 16 9 N 1,3 0,3
21.04.2018 09:00:00 0,3 0,2 11 6 16 9 NE 0,3 0,0
21.04.2018 08:00:00 - - - - - - - - -
21.04.2018 07:00:00 0,4 0,3 12 7 14 7 NNE 10 0,0
21.04.2018 06:00:00 0,4 0,3 5 3 21 11 NNE 0,9 0,0
21.04.2018 05:00:00 0,4 0,3 10 5 21 11 NE 0,6 0,0
21.04.2018 04:00:00 0,3 0,2 13 7 14 8 NNE 4,3 0,0
21.04.2018 03:00:00 0,2 0,1 6 3 10 5 N 0,8 0,0
21.04.2018 02:00:00 0,3 0,2 6 3 14 8 N 0,9 0,0
21.04.2018 01:00:00 0,3 0,2 8 5 17 9 ENE 0,2 0,0
21.04.2018 00:00:00 0,4 0,3 11 6 22 12 ESE 0,2 0,0
20.04.2018 23:00:00 0,0 -0,1 13 7 22 12 E 0,3 0,0
20.04.2018 22:00:00 -0,1 -0,4 16 9 20 11 SE 0,2 0,0
20.04.2018 21:00:00 -0,9 -1,3 14 8 19 10 ESE 13 0,0
20.04.2018 20:00:00 -0,7 -1,3 12 7 19 10 E 21 0,0
20.04.2018 19:00:00 0,7 0,1 13 7 19 10 SE 23 0,0
20.04.2018 18:00:00 0,7 0,0 16 8 19 10 SSE 24 0,0
20.04.2018 17:00:00 0,9 0,0 11 6 15 8 S 15 0,0
20.04.2018 16:00:00 1,8 0,8 11 6 15 8 SE 25 0,0
20.04.2018 15:00:00 2,1 0,6 9 5 15 8 SSE 24 0,0
20.04.2018 14:00:00 2,6 0,5 5 3 18 10 ESE 21 0,0
20.04.2018 13:00:00 2,4 1,1 6 3 18 10 ENE 10 0,0
20.04.2018 12:00:00 1,9 0,3 12 6 14 8 N 19 0,0
20.04.2018 11:00:00 2,0 0,8 9 5 18 10 W 17 0,0
20.04.2018 10:00:00 1,2 0,6 11 6 21 12 WSW 10 0,0
20.04.2018 09:00:00 0,9 0,3 16 9 25 14 SW 13 0,0
20.04.2018 08:00:00 0,7 0,3 21 11 27 15 SSW 16 0,0
20.04.2018 07:00:00 0,6 0,2 22 12 28 15 S 12 0,0
20.04.2018 06:00:00 0,7 0,1 22 12 28 15 SSE 9 0,2
20.04.2018 05:00:00 0,8 0,1 22 12 28 15 SE 22 0,6
20.04.2018 04:00:00 0,6 -0,3 14 8 16 8 E 8 0,8
20.04.2018 03:00:00 0,9 -0,3 10 6 19 10 SE 29 0,6
20.04.2018 02:00:00 0,7 -0,6 9 5 19 10 S 7 0,0
20.04.2018 01:00:00 1,2 -0,7 12 6 17 9 SE 50 0,0
20.04.2018 00:00:00 1,3 -0,6 14 8 16 9 ESE 50 0,0
19.04.2018 23:00:00 1,8 -0,8 12 7 13 7 SSE 50 0,0
19.04.2018 22:00:00 1,3 -0,6 8 4 20 11 S 50 0,0
19.04.2018 21:00:00 1,5 -0,6 10 5 25 14 S 50 0,0
19.04.2018 20:00:00 0,7 -1,5 10 6 25 14 SSE 50 0,0
19.04.2018 19:00:00 1,7 -1,2 19 11 23 12 E 50 0,0
19.04.2018 18:00:00 3,6 -1,6 6 4 8 4 E 50 0,0
19.04.2018 17:00:00 4,0 -1,4 3 2 10 6 E 45 0,0
19.04.2018 16:00:00 3,0 -1,4 6 3 11 6 SW 43 0,0
19.04.2018 15:00:00 5,3 -1,2 5 3 22 12 NW 47 0,0
19.04.2018 14:00:00 6,2 -1,7 6 4 27 15 NNW 50 0,0
19.04.2018 13:00:00 4,9 -1,1 13 7 27 15 N 43 0,0
19.04.2018 12:00:00 4,0 -1,0 11 6 27 15 NNW 46 0,0
19.04.2018 11:00:00 4,8 -1,4 17 9 31 17 NW 50 0,0
19.04.2018 10:00:00 3,8 -1,2 18 10 31 17 WNW 42 0,0
19.04.2018 09:00:00 3,4 -0,8 18 10 30 16 WNW 39 0,0
19.04.2018 08:00:00 4,4 -1,2 22 12 28 15 NW 41 0,0
19.04.2018 07:00:00 2,7 -1,5 21 12 28 15 NW 50 0,0
19.04.2018 06:00:00 -1,9 -4,7 17 9 29 15 WNW 50 0,0
19.04.2018 05:00:00 1,3 -2,6 16 9 29 15 NW 50 0,0
19.04.2018 04:00:00 -1,7 -3,6 17 9 20 11 WNW 50 0,0
19.04.2018 03:00:00 -2,5 -4,4 14 7 17 9 W 48 0,0
19.04.2018 02:00:00 -1,5 -3,4 16 9 17 9 WSW 40 0,0
19.04.2018 01:00:00 -1,9 -3,9 12 6 15 8 WSW 50 0,0
19.04.2018 00:00:00 -2,0 -3,9 12 6 14 8 SW 50 0,0
18.04.2018 23:00:00 -1,8 -3,5 11 6 16 9 SW 50 0,0
18.04.2018 22:00:00 -1,5 -3,1 11 6 17 9 SSW 50 0,0
18.04.2018 21:00:00 -1,4 -3,0 12 6 18 10 S 50 0,0
18.04.2018 20:00:00 -0,6 -2,3 15 8 19 10 S 50 0,0
18.04.2018 19:00:00 0,3 -1,9 16 9 19 11 S 48 0,0
18.04.2018 18:00:00 0,6 -1,6 16 9 19 11 S 50 0,0
18.04.2018 17:00:00 1,3 -1,4 17 9 22 12 S 46 0,0
18.04.2018 16:00:00 1,9 -1,4 18 10 22 12 S 45 0,0
18.04.2018 15:00:00 2,0 -1,6 16 9 20 11 S 48 0,0
18.04.2018 14:00:00 2,2 -1,4 17 9 19 10 S 50 0,0
18.04.2018 13:00:00 2,1 -1,2 14 8 18 10 S 35 0,0
18.04.2018 12:00:00 2,2 -1,4 16 9 18 10 S 32 0,0
18.04.2018 11:00:00 1,8 -1,3 11 6 18 10 S 39 0,0
18.04.2018 10:00:00 1,5 -1,4 13 7 15 8 S 39 0,0
18.04.2018 09:00:00 -0,1 -2,6 9 5 15 8 S 32 0,0
18.04.2018 08:00:00 - - - - - - - - -
18.04.2018 07:00:00 -3,4 -6,2 8 5 9 5 S 43 0,0
18.04.2018 06:00:00 -4,2 -7,0 5 3 7 4 SSW 49 0,0
18.04.2018 05:00:00 -3,9 -6,5 6 3 6 3 WSW 50 0,0
18.04.2018 04:00:00 -3,4 -6,6 0 0 9 5 N 50 0,0
18.04.2018 03:00:00 -2,6 -5,7 4 2 12 6 WNW 50 0,0
18.04.2018 02:00:00 -2,6 -5,9 5 3 13 7 NW 50 0,0
18.04.2018 01:00:00 -0,4 -6,0 10 6 16 8 WNW 50 0,0
18.04.2018 00:00:00 2,1 -4,2 10 6 16 9 WNW 50 0,0
17.04.2018 23:00:00 1,4 -4,3 13 7 16 9 WNW 50 0,0
17.04.2018 22:00:00 1,2 -4,1 14 8 16 8 WNW 50 0,0
17.04.2018 21:00:00 3,7 -3,3 10 6 13 7 WNW 50 0,0
17.04.2018 20:00:00 3,8 -3,3 9 5 13 7 WNW 50 0,0
17.04.2018 19:00:00 5,3 -2,8 9 5 14 8 NNW 50 0,0
17.04.2018 18:00:00 8,2 -3,0 11 6 18 10 NNW 50 0,0
17.04.2018 17:00:00 7,7 -2,9 11 6 18 10 NNW 50 0,0
17.04.2018 16:00:00 6,1 -2,3 14 7 21 12 N 43 0,0
17.04.2018 15:00:00 5,7 -2,2 14 8 24 13 NNW 43 0,0
17.04.2018 14:00:00 4,7 -2,2 16 9 26 14 N 46 0,0
17.04.2018 13:00:00 4,4 -2,2 18 10 26 14 N 39 0,0
17.04.2018 12:00:00 3,7 -1,9 16 9 24 13 N 33 0,0
17.04.2018 11:00:00 3,1 -2,4 14 8 24 13 NNW 50 0,0
17.04.2018 10:00:00 2,4 -2,3 18 10 24 13 N 50 0,0
17.04.2018 09:00:00 0,6 -3,3 15 8 20 11 N 42 0,0
17.04.2018 08:00:00 -0,2 -3,7 10 5 16 9 NNW 44 0,0
17.04.2018 07:00:00 -3,0 -6,3 6 3 23 12 NNW 43 0,0
17.04.2018 06:00:00 -3,1 -5,6 5 3 23 12 NNW 47 0,0
17.04.2018 05:00:00 -1,9 -4,7 13 7 16 9 N 48 0,0
17.04.2018 04:00:00 -2,8 -4,7 5 3 14 8 NW 50 0,0

tt = Température de l'air
td = dewpoint
ff = Vitesse du vent
fx = gusts
dd = Direction du vent
vv = visibility
rr = Quantités de précipitations

stations d'obs. à proximité